sensor_id;sensor_type;location;lat;lon;timestamp;P1;durP1;ratioP1;P2;durP2;ratioP2
18425;SDS011;9340;48.756;9.226;2023-05-17T00:00:56;5.60;;;2.23;;
18425;SDS011;9340;48.756;9.226;2023-05-17T00:03:23;5.17;;;2.00;;
18425;SDS011;9340;48.756;9.226;2023-05-17T00:05:51;2.87;;;1.97;;
18425;SDS011;9340;48.756;9.226;2023-05-17T00:08:18;4.37;;;2.00;;
18425;SDS011;9340;48.756;9.226;2023-05-17T00:10:44;4.13;;;2.23;;
18425;SDS011;9340;48.756;9.226;2023-05-17T00:13:11;5.97;;;2.20;;
18425;SDS011;9340;48.756;9.226;2023-05-17T00:15:38;4.17;;;2.13;;
18425;SDS011;9340;48.756;9.226;2023-05-17T00:18:04;4.90;;;2.00;;
18425;SDS011;9340;48.756;9.226;2023-05-17T00:20:31;3.87;;;2.10;;
18425;SDS011;9340;48.756;9.226;2023-05-17T00:22:59;4.60;;;2.10;;
18425;SDS011;9340;48.756;9.226;2023-05-17T00:25:27;4.87;;;2.00;;
18425;SDS011;9340;48.756;9.226;2023-05-17T00:27:53;5.07;;;2.00;;
18425;SDS011;9340;48.756;9.226;2023-05-17T00:30:20;3.83;;;1.97;;
18425;SDS011;9340;48.756;9.226;2023-05-17T00:32:46;3.83;;;1.93;;
18425;SDS011;9340;48.756;9.226;2023-05-17T00:35:13;5.60;;;2.60;;
18425;SDS011;9340;48.756;9.226;2023-05-17T00:37:40;3.43;;;1.90;;
18425;SDS011;9340;48.756;9.226;2023-05-17T00:40:13;2.17;;;1.73;;
18425;SDS011;9340;48.756;9.226;2023-05-17T00:42:40;2.30;;;1.50;;
18425;SDS011;9340;48.756;9.226;2023-05-17T00:45:07;3.83;;;2.00;;
18425;SDS011;9340;48.756;9.226;2023-05-17T00:47:34;4.63;;;1.90;;
18425;SDS011;9340;48.756;9.226;2023-05-17T00:50:01;5.47;;;2.10;;
18425;SDS011;9340;48.756;9.226;2023-05-17T00:52:28;3.80;;;2.23;;
18425;SDS011;9340;48.756;9.226;2023-05-17T00:54:55;5.83;;;2.23;;
18425;SDS011;9340;48.756;9.226;2023-05-17T00:57:23;3.67;;;2.03;;
18425;SDS011;9340;48.756;9.226;2023-05-17T00:59:50;4.23;;;1.93;;
18425;SDS011;9340;48.756;9.226;2023-05-17T01:02:19;3.47;;;1.93;;
18425;SDS011;9340;48.756;9.226;2023-05-17T01:04:46;3.57;;;2.10;;
18425;SDS011;9340;48.756;9.226;2023-05-17T01:07:13;4.20;;;2.30;;
18425;SDS011;9340;48.756;9.226;2023-05-17T01:09:40;5.07;;;2.00;;
18425;SDS011;9340;48.756;9.226;2023-05-17T01:12:09;5.27;;;1.90;;
18425;SDS011;9340;48.756;9.226;2023-05-17T01:14:49;3.67;;;2.47;;
18425;SDS011;9340;48.756;9.226;2023-05-17T01:17:27;5.13;;;2.10;;
18425;SDS011;9340;48.756;9.226;2023-05-17T01:20:02;4.10;;;2.20;;
18425;SDS011;9340;48.756;9.226;2023-05-17T01:22:39;4.73;;;2.50;;
18425;SDS011;9340;48.756;9.226;2023-05-17T01:25:11;3.93;;;2.00;;
18425;SDS011;9340;48.756;9.226;2023-05-17T01:27:51;6.73;;;2.23;;
18425;SDS011;9340;48.756;9.226;2023-05-17T01:30:21;4.20;;;1.93;;
18425;SDS011;9340;48.756;9.226;2023-05-17T01:32:50;4.33;;;2.00;;
18425;SDS011;9340;48.756;9.226;2023-05-17T01:35:20;4.73;;;1.80;;
18425;SDS011;9340;48.756;9.226;2023-05-17T01:37:46;3.90;;;2.67;;
18425;SDS011;9340;48.756;9.226;2023-05-17T01:40:13;4.00;;;2.20;;
18425;SDS011;9340;48.756;9.226;2023-05-17T01:42:42;4.20;;;1.90;;
18425;SDS011;9340;48.756;9.226;2023-05-17T01:45:14;3.47;;;1.83;;
18425;SDS011;9340;48.756;9.226;2023-05-17T01:47:47;7.47;;;2.40;;
18425;SDS011;9340;48.756;9.226;2023-05-17T01:50:22;4.57;;;2.10;;
18425;SDS011;9340;48.756;9.226;2023-05-17T01:52:52;6.17;;;2.30;;
18425;SDS011;9340;48.756;9.226;2023-05-17T01:55:23;4.33;;;2.07;;
18425;SDS011;9340;48.756;9.226;2023-05-17T01:57:55;3.57;;;1.97;;
18425;SDS011;9340;48.756;9.226;2023-05-17T02:00:24;7.00;;;2.40;;
18425;SDS011;9340;48.756;9.226;2023-05-17T02:02:54;5.27;;;2.00;;
18425;SDS011;9340;48.756;9.226;2023-05-17T02:05:21;3.90;;;2.00;;
18425;SDS011;9340;48.756;9.226;2023-05-17T02:07:47;3.63;;;1.90;;
18425;SDS011;9340;48.756;9.226;2023-05-17T02:10:14;3.10;;;1.80;;
18425;SDS011;9340;48.756;9.226;2023-05-17T02:12:41;3.80;;;2.10;;
18425;SDS011;9340;48.756;9.226;2023-05-17T02:15:07;4.37;;;2.10;;
18425;SDS011;9340;48.756;9.226;2023-05-17T02:17:37;3.60;;;2.10;;
18425;SDS011;9340;48.756;9.226;2023-05-17T02:20:04;4.47;;;2.10;;
18425;SDS011;9340;48.756;9.226;2023-05-17T02:22:32;3.83;;;2.20;;
18425;SDS011;9340;48.756;9.226;2023-05-17T02:24:59;7.83;;;2.50;;
18425;SDS011;9340;48.756;9.226;2023-05-17T02:27:26;2.90;;;1.80;;
18425;SDS011;9340;48.756;9.226;2023-05-17T02:29:52;5.00;;;2.00;;
18425;SDS011;9340;48.756;9.226;2023-05-17T02:32:19;5.00;;;2.33;;
18425;SDS011;9340;48.756;9.226;2023-05-17T02:34:47;3.57;;;2.07;;
18425;SDS011;9340;48.756;9.226;2023-05-17T02:37:13;3.87;;;2.17;;
18425;SDS011;9340;48.756;9.226;2023-05-17T02:39:40;4.07;;;2.07;;
18425;SDS011;9340;48.756;9.226;2023-05-17T02:42:07;4.00;;;2.10;;
18425;SDS011;9340;48.756;9.226;2023-05-17T02:44:33;3.73;;;2.07;;
18425;SDS011;9340;48.756;9.226;2023-05-17T02:47:00;3.83;;;2.30;;
18425;SDS011;9340;48.756;9.226;2023-05-17T02:49:27;2.67;;;2.07;;
18425;SDS011;9340;48.756;9.226;2023-05-17T02:51:55;5.30;;;2.70;;
18425;SDS011;9340;48.756;9.226;2023-05-17T02:54:21;8.80;;;2.40;;
18425;SDS011;9340;48.756;9.226;2023-05-17T02:56:48;3.90;;;2.07;;
18425;SDS011;9340;48.756;9.226;2023-05-17T02:59:15;5.73;;;2.50;;
18425;SDS011;9340;48.756;9.226;2023-05-17T03:01:41;4.03;;;2.20;;
18425;SDS011;9340;48.756;9.226;2023-05-17T03:04:08;7.67;;;2.23;;
18425;SDS011;9340;48.756;9.226;2023-05-17T03:06:36;3.73;;;2.13;;
18425;SDS011;9340;48.756;9.226;2023-05-17T03:09:04;6.50;;;2.30;;
18425;SDS011;9340;48.756;9.226;2023-05-17T03:11:31;2.83;;;2.53;;
18425;SDS011;9340;48.756;9.226;2023-05-17T03:13:57;5.17;;;2.53;;
18425;SDS011;9340;48.756;9.226;2023-05-17T03:16:24;4.00;;;2.23;;
18425;SDS011;9340;48.756;9.226;2023-05-17T03:18:51;5.00;;;2.60;;
18425;SDS011;9340;48.756;9.226;2023-05-17T03:21:17;3.33;;;2.13;;
18425;SDS011;9340;48.756;9.226;2023-05-17T03:23:44;3.33;;;2.30;;
18425;SDS011;9340;48.756;9.226;2023-05-17T03:26:12;4.93;;;2.60;;
18425;SDS011;9340;48.756;9.226;2023-05-17T03:28:38;3.63;;;2.00;;
18425;SDS011;9340;48.756;9.226;2023-05-17T03:31:05;3.60;;;1.97;;
18425;SDS011;9340;48.756;9.226;2023-05-17T03:33:32;4.20;;;2.03;;
18425;SDS011;9340;48.756;9.226;2023-05-17T03:35:58;4.20;;;2.57;;
18425;SDS011;9340;48.756;9.226;2023-05-17T03:38:25;5.40;;;2.53;;
18425;SDS011;9340;48.756;9.226;2023-05-17T03:40:52;5.17;;;2.40;;
18425;SDS011;9340;48.756;9.226;2023-05-17T03:43:20;2.80;;;1.97;;
18425;SDS011;9340;48.756;9.226;2023-05-17T03:45:47;6.10;;;2.57;;
18425;SDS011;9340;48.756;9.226;2023-05-17T03:48:13;5.63;;;2.40;;
18425;SDS011;9340;48.756;9.226;2023-05-17T03:50:40;6.50;;;2.67;;
18425;SDS011;9340;48.756;9.226;2023-05-17T03:53:07;5.17;;;2.63;;
18425;SDS011;9340;48.756;9.226;2023-05-17T03:55:35;3.80;;;2.30;;
18425;SDS011;9340;48.756;9.226;2023-05-17T03:58:02;3.33;;;2.20;;
18425;SDS011;9340;48.756;9.226;2023-05-17T04:00:30;3.17;;;2.30;;
18425;SDS011;9340;48.756;9.226;2023-05-17T04:02:57;5.03;;;2.53;;
18425;SDS011;9340;48.756;9.226;2023-05-17T04:05:23;4.23;;;2.17;;
18425;SDS011;9340;48.756;9.226;2023-05-17T04:07:50;6.40;;;2.80;;
18425;SDS011;9340;48.756;9.226;2023-05-17T04:10:17;3.70;;;2.20;;
18425;SDS011;9340;48.756;9.226;2023-05-17T04:12:44;5.03;;;2.53;;
18425;SDS011;9340;48.756;9.226;2023-05-17T04:15:10;4.93;;;2.10;;
18425;SDS011;9340;48.756;9.226;2023-05-17T04:17:38;3.57;;;2.47;;
18425;SDS011;9340;48.756;9.226;2023-05-17T04:20:05;4.37;;;2.10;;
18425;SDS011;9340;48.756;9.226;2023-05-17T04:22:33;3.83;;;2.10;;
18425;SDS011;9340;48.756;9.226;2023-05-17T04:24:59;3.63;;;2.50;;
18425;SDS011;9340;48.756;9.226;2023-05-17T04:27:26;3.77;;;2.43;;
18425;SDS011;9340;48.756;9.226;2023-05-17T04:29:53;5.50;;;2.40;;
18425;SDS011;9340;48.756;9.226;2023-05-17T04:32:19;3.10;;;1.90;;
18425;SDS011;9340;48.756;9.226;2023-05-17T04:34:48;3.60;;;2.07;;
18425;SDS011;9340;48.756;9.226;2023-05-17T04:37:16;6.07;;;2.53;;
18425;SDS011;9340;48.756;9.226;2023-05-17T04:39:42;4.27;;;2.07;;
18425;SDS011;9340;48.756;9.226;2023-05-17T04:42:09;4.43;;;1.93;;
18425;SDS011;9340;48.756;9.226;2023-05-17T04:44:36;2.67;;;1.80;;
18425;SDS011;9340;48.756;9.226;2023-05-17T04:47:02;5.00;;;2.27;;
18425;SDS011;9340;48.756;9.226;2023-05-17T04:49:29;3.53;;;1.90;;
18425;SDS011;9340;48.756;9.226;2023-05-17T04:51:57;3.93;;;2.20;;
18425;SDS011;9340;48.756;9.226;2023-05-17T04:54:24;3.17;;;2.10;;
18425;SDS011;9340;48.756;9.226;2023-05-17T04:56:51;2.93;;;1.93;;
18425;SDS011;9340;48.756;9.226;2023-05-17T04:59:18;3.30;;;1.83;;
18425;SDS011;9340;48.756;9.226;2023-05-17T05:01:44;4.53;;;2.37;;
18425;SDS011;9340;48.756;9.226;2023-05-17T05:04:11;3.90;;;2.00;;
18425;SDS011;9340;48.756;9.226;2023-05-17T05:06:38;5.20;;;2.23;;
18425;SDS011;9340;48.756;9.226;2023-05-17T05:09:06;2.73;;;1.90;;
18425;SDS011;9340;48.756;9.226;2023-05-17T05:11:32;3.33;;;2.50;;
18425;SDS011;9340;48.756;9.226;2023-05-17T05:13:59;3.83;;;2.07;;
18425;SDS011;9340;48.756;9.226;2023-05-17T05:16:26;4.13;;;2.10;;
18425;SDS011;9340;48.756;9.226;2023-05-17T05:18:52;4.30;;;1.80;;
18425;SDS011;9340;48.756;9.226;2023-05-17T05:21:19;2.80;;;2.00;;
18425;SDS011;9340;48.756;9.226;2023-05-17T05:23:46;3.13;;;2.13;;
18425;SDS011;9340;48.756;9.226;2023-05-17T05:26:14;5.07;;;1.73;;
18425;SDS011;9340;48.756;9.226;2023-05-17T05:28:40;3.20;;;2.43;;
18425;SDS011;9340;48.756;9.226;2023-05-17T05:31:07;4.73;;;2.30;;
18425;SDS011;9340;48.756;9.226;2023-05-17T05:33:33;4.03;;;1.93;;
18425;SDS011;9340;48.756;9.226;2023-05-17T05:36:00;2.77;;;1.93;;
18425;SDS011;9340;48.756;9.226;2023-05-17T05:38:27;5.17;;;2.13;;
18425;SDS011;9340;48.756;9.226;2023-05-17T05:40:53;2.27;;;1.83;;
18425;SDS011;9340;48.756;9.226;2023-05-17T05:43:21;3.40;;;1.97;;
18425;SDS011;9340;48.756;9.226;2023-05-17T05:45:48;3.53;;;2.23;;
18425;SDS011;9340;48.756;9.226;2023-05-17T05:48:15;4.20;;;2.40;;
18425;SDS011;9340;48.756;9.226;2023-05-17T05:50:42;4.33;;;2.10;;
18425;SDS011;9340;48.756;9.226;2023-05-17T05:53:09;4.67;;;2.30;;
18425;SDS011;9340;48.756;9.226;2023-05-17T05:55:39;5.40;;;2.20;;
18425;SDS011;9340;48.756;9.226;2023-05-17T05:58:06;3.60;;;2.20;;
18425;SDS011;9340;48.756;9.226;2023-05-17T06:00:34;3.83;;;2.17;;
18425;SDS011;9340;48.756;9.226;2023-05-17T06:03:01;4.23;;;2.10;;
18425;SDS011;9340;48.756;9.226;2023-05-17T06:05:28;6.43;;;2.50;;
18425;SDS011;9340;48.756;9.226;2023-05-17T06:07:54;6.20;;;2.20;;
18425;SDS011;9340;48.756;9.226;2023-05-17T06:10:21;5.73;;;2.60;;
18425;SDS011;9340;48.756;9.226;2023-05-17T06:12:48;5.90;;;2.00;;
18425;SDS011;9340;48.756;9.226;2023-05-17T06:15:15;4.70;;;2.63;;
18425;SDS011;9340;48.756;9.226;2023-05-17T06:17:43;4.03;;;2.43;;
18425;SDS011;9340;48.756;9.226;2023-05-17T06:20:10;4.97;;;2.10;;
18425;SDS011;9340;48.756;9.226;2023-05-17T06:22:36;3.27;;;2.17;;
18425;SDS011;9340;48.756;9.226;2023-05-17T06:25:03;4.40;;;2.70;;
18425;SDS011;9340;48.756;9.226;2023-05-17T06:27:31;5.63;;;3.03;;
18425;SDS011;9340;48.756;9.226;2023-05-17T06:29:58;5.37;;;2.80;;
18425;SDS011;9340;48.756;9.226;2023-05-17T06:32:25;3.50;;;2.57;;
18425;SDS011;9340;48.756;9.226;2023-05-17T06:34:53;6.60;;;2.80;;
18425;SDS011;9340;48.756;9.226;2023-05-17T06:37:20;6.20;;;2.53;;
18425;SDS011;9340;48.756;9.226;2023-05-17T06:39:47;3.77;;;2.60;;
18425;SDS011;9340;48.756;9.226;2023-05-17T06:42:16;6.60;;;3.20;;
18425;SDS011;9340;48.756;9.226;2023-05-17T06:44:42;5.47;;;2.73;;
18425;SDS011;9340;48.756;9.226;2023-05-17T06:47:09;4.50;;;2.77;;
18425;SDS011;9340;48.756;9.226;2023-05-17T06:49:36;6.97;;;2.70;;
18425;SDS011;9340;48.756;9.226;2023-05-17T06:52:04;4.87;;;3.03;;
18425;SDS011;9340;48.756;9.226;2023-05-17T06:54:31;5.27;;;3.30;;
18425;SDS011;9340;48.756;9.226;2023-05-17T06:56:58;8.27;;;3.30;;
18425;SDS011;9340;48.756;9.226;2023-05-17T06:59:25;4.70;;;2.80;;
18425;SDS011;9340;48.756;9.226;2023-05-17T07:01:52;5.63;;;3.03;;
18425;SDS011;9340;48.756;9.226;2023-05-17T07:04:18;5.87;;;2.90;;
18425;SDS011;9340;48.756;9.226;2023-05-17T07:06:45;5.13;;;3.20;;
18425;SDS011;9340;48.756;9.226;2023-05-17T07:09:13;5.00;;;3.20;;
18425;SDS011;9340;48.756;9.226;2023-05-17T07:11:40;6.33;;;3.27;;
18425;SDS011;9340;48.756;9.226;2023-05-17T07:14:07;4.97;;;3.07;;
18425;SDS011;9340;48.756;9.226;2023-05-17T07:16:33;5.40;;;3.20;;
18425;SDS011;9340;48.756;9.226;2023-05-17T07:19:00;6.73;;;3.40;;
18425;SDS011;9340;48.756;9.226;2023-05-17T07:21:26;5.27;;;3.37;;
18425;SDS011;9340;48.756;9.226;2023-05-17T07:23:53;5.87;;;3.37;;
18425;SDS011;9340;48.756;9.226;2023-05-17T07:26:21;7.03;;;3.13;;
18425;SDS011;9340;48.756;9.226;2023-05-17T07:28:49;6.43;;;3.70;;
18425;SDS011;9340;48.756;9.226;2023-05-17T07:31:16;5.67;;;3.37;;
18425;SDS011;9340;48.756;9.226;2023-05-17T07:33:43;8.97;;;3.40;;
18425;SDS011;9340;48.756;9.226;2023-05-17T07:36:10;6.30;;;3.03;;
18425;SDS011;9340;48.756;9.226;2023-05-17T07:38:37;6.87;;;3.70;;
18425;SDS011;9340;48.756;9.226;2023-05-17T07:41:03;7.43;;;3.77;;
18425;SDS011;9340;48.756;9.226;2023-05-17T07:43:34;5.83;;;3.23;;
18425;SDS011;9340;48.756;9.226;2023-05-17T07:46:01;5.17;;;3.10;;
18425;SDS011;9340;48.756;9.226;2023-05-17T07:48:28;6.33;;;3.83;;
18425;SDS011;9340;48.756;9.226;2023-05-17T07:50:55;4.10;;;3.40;;
18425;SDS011;9340;48.756;9.226;2023-05-17T07:53:22;7.73;;;3.80;;
18425;SDS011;9340;48.756;9.226;2023-05-17T07:55:48;4.27;;;3.70;;
18425;SDS011;9340;48.756;9.226;2023-05-17T07:58:16;4.50;;;3.40;;
18425;SDS011;9340;48.756;9.226;2023-05-17T08:00:44;6.30;;;3.90;;
18425;SDS011;9340;48.756;9.226;2023-05-17T08:03:10;5.17;;;3.40;;
18425;SDS011;9340;48.756;9.226;2023-05-17T08:05:37;6.30;;;4.00;;
18425;SDS011;9340;48.756;9.226;2023-05-17T08:08:04;5.73;;;3.63;;
18425;SDS011;9340;48.756;9.226;2023-05-17T08:10:31;7.03;;;4.03;;
18425;SDS011;9340;48.756;9.226;2023-05-17T08:12:58;5.50;;;3.80;;
18425;SDS011;9340;48.756;9.226;2023-05-17T08:15:25;4.57;;;3.53;;
18425;SDS011;9340;48.756;9.226;2023-05-17T08:17:53;4.87;;;3.97;;
18425;SDS011;9340;48.756;9.226;2023-05-17T08:20:19;6.43;;;3.83;;
18425;SDS011;9340;48.756;9.226;2023-05-17T08:22:46;5.57;;;4.13;;
18425;SDS011;9340;48.756;9.226;2023-05-17T08:25:13;6.13;;;4.10;;
18425;SDS011;9340;48.756;9.226;2023-05-17T08:27:40;4.23;;;3.23;;
18425;SDS011;9340;48.756;9.226;2023-05-17T08:30:07;6.03;;;3.93;;
18425;SDS011;9340;48.756;9.226;2023-05-17T08:32:34;5.30;;;3.60;;
18425;SDS011;9340;48.756;9.226;2023-05-17T08:35:02;5.03;;;3.77;;
18425;SDS011;9340;48.756;9.226;2023-05-17T08:37:29;5.87;;;4.20;;
18425;SDS011;9340;48.756;9.226;2023-05-17T08:39:56;5.60;;;4.40;;
18425;SDS011;9340;48.756;9.226;2023-05-17T08:42:23;5.67;;;3.80;;
18425;SDS011;9340;48.756;9.226;2023-05-17T08:44:50;4.87;;;4.00;;
18425;SDS011;9340;48.756;9.226;2023-05-17T08:47:18;8.87;;;4.23;;
18425;SDS011;9340;48.756;9.226;2023-05-17T08:49:54;5.07;;;4.10;;
18425;SDS011;9340;48.756;9.226;2023-05-17T08:52:27;4.63;;;3.93;;
18425;SDS011;9340;48.756;9.226;2023-05-17T08:54:55;6.87;;;4.33;;
18425;SDS011;9340;48.756;9.226;2023-05-17T08:57:22;6.37;;;4.43;;
18425;SDS011;9340;48.756;9.226;2023-05-17T08:59:53;5.13;;;3.90;;
18425;SDS011;9340;48.756;9.226;2023-05-17T09:02:20;5.50;;;4.03;;
18425;SDS011;9340;48.756;9.226;2023-05-17T09:04:49;10.83;;;4.47;;
18425;SDS011;9340;48.756;9.226;2023-05-17T09:07:19;5.30;;;3.88;;
18425;SDS011;9340;48.756;9.226;2023-05-17T09:09:47;6.28;;;4.43;;
18425;SDS011;9340;48.756;9.226;2023-05-17T09:12:16;11.98;;;4.35;;
18425;SDS011;9340;48.756;9.226;2023-05-17T09:14:43;6.57;;;4.67;;
18425;SDS011;9340;48.756;9.226;2023-05-17T09:17:12;4.57;;;4.00;;
18425;SDS011;9340;48.756;9.226;2023-05-17T09:19:44;6.60;;;4.30;;
18425;SDS011;9340;48.756;9.226;2023-05-17T09:22:12;7.00;;;4.22;;
18425;SDS011;9340;48.756;9.226;2023-05-17T09:24:40;4.63;;;3.67;;
18425;SDS011;9340;48.756;9.226;2023-05-17T09:27:08;5.10;;;3.97;;
18425;SDS011;9340;48.756;9.226;2023-05-17T09:29:39;6.65;;;4.38;;
18425;SDS011;9340;48.756;9.226;2023-05-17T09:32:12;7.28;;;4.28;;
18425;SDS011;9340;48.756;9.226;2023-05-17T09:34:40;6.00;;;4.97;;
18425;SDS011;9340;48.756;9.226;2023-05-17T09:37:12;8.02;;;5.28;;
18425;SDS011;9340;48.756;9.226;2023-05-17T09:39:40;7.32;;;4.68;;
18425;SDS011;9340;48.756;9.226;2023-05-17T09:42:10;5.40;;;4.00;;
18425;SDS011;9340;48.756;9.226;2023-05-17T09:44:49;5.88;;;3.65;;
18425;SDS011;9340;48.756;9.226;2023-05-17T09:47:23;4.53;;;3.92;;
18425;SDS011;9340;48.756;9.226;2023-05-17T09:49:51;5.15;;;3.88;;
18425;SDS011;9340;48.756;9.226;2023-05-17T09:52:19;4.00;;;3.65;;
18425;SDS011;9340;48.756;9.226;2023-05-17T09:54:50;4.35;;;3.47;;
18425;SDS011;9340;48.756;9.226;2023-05-17T09:57:20;6.40;;;4.28;;
18425;SDS011;9340;48.756;9.226;2023-05-17T09:59:47;6.40;;;3.58;;
18425;SDS011;9340;48.756;9.226;2023-05-17T10:02:16;5.40;;;4.00;;
18425;SDS011;9340;48.756;9.226;2023-05-17T10:04:47;6.45;;;3.95;;
18425;SDS011;9340;48.756;9.226;2023-05-17T10:07:15;4.88;;;3.35;;
18425;SDS011;9340;48.756;9.226;2023-05-17T10:09:45;3.97;;;3.58;;
18425;SDS011;9340;48.756;9.226;2023-05-17T10:12:12;5.28;;;4.15;;
18425;SDS011;9340;48.756;9.226;2023-05-17T10:14:43;5.57;;;3.78;;
18425;SDS011;9340;48.756;9.226;2023-05-17T10:17:10;4.20;;;3.75;;
18425;SDS011;9340;48.756;9.226;2023-05-17T10:19:39;5.20;;;3.63;;
18425;SDS011;9340;48.756;9.226;2023-05-17T10:22:06;4.97;;;4.05;;
18425;SDS011;9340;48.756;9.226;2023-05-17T10:24:34;4.20;;;3.55;;
18425;SDS011;9340;48.756;9.226;2023-05-17T10:27:01;4.18;;;3.72;;
18425;SDS011;9340;48.756;9.226;2023-05-17T10:29:28;5.20;;;3.88;;
18425;SDS011;9340;48.756;9.226;2023-05-17T10:31:58;5.40;;;3.58;;
18425;SDS011;9340;48.756;9.226;2023-05-17T10:34:29;5.68;;;3.80;;
18425;SDS011;9340;48.756;9.226;2023-05-17T10:36:58;5.40;;;3.92;;
18425;SDS011;9340;48.756;9.226;2023-05-17T10:39:26;5.88;;;3.75;;
18425;SDS011;9340;48.756;9.226;2023-05-17T10:41:54;5.13;;;4.20;;
18425;SDS011;9340;48.756;9.226;2023-05-17T10:44:22;5.18;;;3.90;;
18425;SDS011;9340;48.756;9.226;2023-05-17T10:46:50;4.70;;;3.97;;
18425;SDS011;9340;48.756;9.226;2023-05-17T10:49:21;7.57;;;4.40;;
18425;SDS011;9340;48.756;9.226;2023-05-17T10:51:49;4.30;;;3.90;;
18425;SDS011;9340;48.756;9.226;2023-05-17T10:54:16;4.35;;;3.67;;
18425;SDS011;9340;48.756;9.226;2023-05-17T10:56:46;5.15;;;4.18;;
18425;SDS011;9340;48.756;9.226;2023-05-17T10:59:14;4.80;;;4.10;;
18425;SDS011;9340;48.756;9.226;2023-05-17T11:01:52;5.78;;;3.85;;
18425;SDS011;9340;48.756;9.226;2023-05-17T11:04:30;6.10;;;4.00;;
18425;SDS011;9340;48.756;9.226;2023-05-17T11:09:51;7.45;;;4.47;;
18425;SDS011;9340;48.756;9.226;2023-05-17T11:12:29;5.93;;;4.57;;
18425;SDS011;9340;48.756;9.226;2023-05-17T11:14:58;5.55;;;4.38;;
18425;SDS011;9340;48.756;9.226;2023-05-17T11:17:25;5.65;;;3.97;;
18425;SDS011;9340;48.756;9.226;2023-05-17T11:20:07;5.85;;;4.18;;
18425;SDS011;9340;48.756;9.226;2023-05-17T11:22:36;6.00;;;3.97;;
18425;SDS011;9340;48.756;9.226;2023-05-17T11:25:05;6.75;;;4.57;;
18425;SDS011;9340;48.756;9.226;2023-05-17T11:27:35;4.45;;;3.83;;
18425;SDS011;9340;48.756;9.226;2023-05-17T11:30:07;7.18;;;4.10;;
18425;SDS011;9340;48.756;9.226;2023-05-17T11:32:51;5.25;;;4.43;;
18425;SDS011;9340;48.756;9.226;2023-05-17T11:35:22;6.97;;;4.93;;
18425;SDS011;9340;48.756;9.226;2023-05-17T11:37:51;4.70;;;3.83;;
18425;SDS011;9340;48.756;9.226;2023-05-17T11:40:23;5.03;;;4.53;;
18425;SDS011;9340;48.756;9.226;2023-05-17T11:45:42;6.30;;;4.47;;
18425;SDS011;9340;48.756;9.226;2023-05-17T11:48:12;5.28;;;3.97;;
18425;SDS011;9340;48.756;9.226;2023-05-17T11:50:42;6.10;;;3.70;;
18425;SDS011;9340;48.756;9.226;2023-05-17T11:53:10;4.88;;;3.50;;
18425;SDS011;9340;48.756;9.226;2023-05-17T11:55:37;5.65;;;4.22;;
18425;SDS011;9340;48.756;9.226;2023-05-17T11:58:06;4.32;;;3.92;;
18425;SDS011;9340;48.756;9.226;2023-05-17T12:00:33;5.30;;;3.92;;
18425;SDS011;9340;48.756;9.226;2023-05-17T12:03:13;4.82;;;4.22;;
18425;SDS011;9340;48.756;9.226;2023-05-17T12:05:46;6.30;;;3.70;;
18425;SDS011;9340;48.756;9.226;2023-05-17T12:08:14;4.20;;;3.80;;
18425;SDS011;9340;48.756;9.226;2023-05-17T12:10:46;4.88;;;4.22;;
18425;SDS011;9340;48.756;9.226;2023-05-17T12:13:14;5.38;;;3.55;;
18425;SDS011;9340;48.756;9.226;2023-05-17T12:15:43;5.70;;;3.95;;
18425;SDS011;9340;48.756;9.226;2023-05-17T12:18:12;4.78;;;4.10;;
18425;SDS011;9340;48.756;9.226;2023-05-17T12:20:57;5.43;;;3.90;;
18425;SDS011;9340;48.756;9.226;2023-05-17T12:23:26;6.22;;;3.97;;
18425;SDS011;9340;48.756;9.226;2023-05-17T12:26:03;4.80;;;3.60;;
18425;SDS011;9340;48.756;9.226;2023-05-17T12:28:34;4.35;;;3.50;;
18425;SDS011;9340;48.756;9.226;2023-05-17T12:31:02;4.30;;;3.58;;
18425;SDS011;9340;48.756;9.226;2023-05-17T12:33:30;5.55;;;4.40;;
18425;SDS011;9340;48.756;9.226;2023-05-17T12:36:00;6.47;;;4.18;;
18425;SDS011;9340;48.756;9.226;2023-05-17T12:38:29;5.38;;;3.83;;
18425;SDS011;9340;48.756;9.226;2023-05-17T12:40:58;4.68;;;3.53;;
18425;SDS011;9340;48.756;9.226;2023-05-17T12:43:26;4.72;;;3.95;;
18425;SDS011;9340;48.756;9.226;2023-05-17T12:45:54;5.15;;;3.63;;
18425;SDS011;9340;48.756;9.226;2023-05-17T12:48:26;4.97;;;4.03;;
18425;SDS011;9340;48.756;9.226;2023-05-17T12:50:53;5.93;;;4.10;;
18425;SDS011;9340;48.756;9.226;2023-05-17T12:53:21;4.30;;;3.90;;
18425;SDS011;9340;48.756;9.226;2023-05-17T12:55:49;7.88;;;4.22;;
18425;SDS011;9340;48.756;9.226;2023-05-17T12:58:21;8.75;;;4.50;;
18425;SDS011;9340;48.756;9.226;2023-05-17T13:00:57;4.28;;;3.58;;
18425;SDS011;9340;48.756;9.226;2023-05-17T13:03:25;5.93;;;4.32;;
18425;SDS011;9340;48.756;9.226;2023-05-17T13:06:02;4.35;;;3.58;;
18425;SDS011;9340;48.756;9.226;2023-05-17T13:08:33;5.10;;;3.85;;
18425;SDS011;9340;48.756;9.226;2023-05-17T13:11:06;6.80;;;3.75;;
18425;SDS011;9340;48.756;9.226;2023-05-17T13:13:34;4.82;;;3.38;;
18425;SDS011;9340;48.756;9.226;2023-05-17T13:16:01;6.05;;;3.90;;
18425;SDS011;9340;48.756;9.226;2023-05-17T13:18:28;4.70;;;4.03;;
18425;SDS011;9340;48.756;9.226;2023-05-17T13:20:59;7.18;;;3.88;;
18425;SDS011;9340;48.756;9.226;2023-05-17T13:23:26;5.07;;;3.95;;
18425;SDS011;9340;48.756;9.226;2023-05-17T13:25:54;6.75;;;4.13;;
18425;SDS011;9340;48.756;9.226;2023-05-17T13:28:20;6.75;;;4.20;;
18425;SDS011;9340;48.756;9.226;2023-05-17T13:30:48;6.70;;;4.07;;
18425;SDS011;9340;48.756;9.226;2023-05-17T13:33:16;5.28;;;3.63;;
18425;SDS011;9340;48.756;9.226;2023-05-17T13:35:44;5.60;;;3.80;;
18425;SDS011;9340;48.756;9.226;2023-05-17T13:38:10;6.63;;;4.22;;
18425;SDS011;9340;48.756;9.226;2023-05-17T13:40:37;5.35;;;4.15;;
18425;SDS011;9340;48.756;9.226;2023-05-17T13:43:05;6.13;;;3.63;;
18425;SDS011;9340;48.756;9.226;2023-05-17T13:45:33;5.10;;;4.03;;
18425;SDS011;9340;48.756;9.226;2023-05-17T13:48:00;5.55;;;4.47;;
18425;SDS011;9340;48.756;9.226;2023-05-17T13:50:26;4.93;;;4.03;;
18425;SDS011;9340;48.756;9.226;2023-05-17T13:52:53;5.53;;;3.50;;
18425;SDS011;9340;48.756;9.226;2023-05-17T13:55:20;5.15;;;3.70;;
18425;SDS011;9340;48.756;9.226;2023-05-17T13:57:47;6.20;;;3.83;;
18425;SDS011;9340;48.756;9.226;2023-05-17T14:00:15;6.00;;;4.03;;
18425;SDS011;9340;48.756;9.226;2023-05-17T14:02:42;4.35;;;3.72;;
18425;SDS011;9340;48.756;9.226;2023-05-17T14:05:09;5.88;;;4.13;;
18425;SDS011;9340;48.756;9.226;2023-05-17T14:07:36;5.47;;;4.07;;
18425;SDS011;9340;48.756;9.226;2023-05-17T14:10:05;5.78;;;4.05;;
18425;SDS011;9340;48.756;9.226;2023-05-17T14:12:33;5.32;;;4.43;;
18425;SDS011;9340;48.756;9.226;2023-05-17T14:15:00;6.72;;;4.38;;
18425;SDS011;9340;48.756;9.226;2023-05-17T14:17:28;5.80;;;4.35;;
18425;SDS011;9340;48.756;9.226;2023-05-17T14:19:55;5.85;;;3.83;;
18425;SDS011;9340;48.756;9.226;2023-05-17T14:22:21;4.40;;;4.00;;
18425;SDS011;9340;48.756;9.226;2023-05-17T14:24:48;5.68;;;3.60;;
18425;SDS011;9340;48.756;9.226;2023-05-17T14:27:15;6.57;;;3.92;;
18425;SDS011;9340;48.756;9.226;2023-05-17T14:29:41;5.82;;;4.47;;
18425;SDS011;9340;48.756;9.226;2023-05-17T14:32:08;6.22;;;3.88;;
18425;SDS011;9340;48.756;9.226;2023-05-17T14:34:38;5.90;;;4.05;;
18425;SDS011;9340;48.756;9.226;2023-05-17T14:37:04;4.35;;;3.60;;
18425;SDS011;9340;48.756;9.226;2023-05-17T14:39:31;5.25;;;3.60;;
18425;SDS011;9340;48.756;9.226;2023-05-17T14:41:58;5.57;;;3.55;;
18425;SDS011;9340;48.756;9.226;2023-05-17T14:44:24;6.55;;;4.32;;
18425;SDS011;9340;48.756;9.226;2023-05-17T14:46:51;7.55;;;4.40;;
18425;SDS011;9340;48.756;9.226;2023-05-17T14:49:18;5.35;;;4.00;;
18425;SDS011;9340;48.756;9.226;2023-05-17T14:51:46;4.43;;;3.83;;
18425;SDS011;9340;48.756;9.226;2023-05-17T14:54:13;4.40;;;4.00;;
18425;SDS011;9340;48.756;9.226;2023-05-17T14:56:40;5.95;;;4.20;;
18425;SDS011;9340;48.756;9.226;2023-05-17T14:59:07;4.22;;;3.50;;
18425;SDS011;9340;48.756;9.226;2023-05-17T15:01:33;5.18;;;4.38;;
18425;SDS011;9340;48.756;9.226;2023-05-17T15:04:00;4.65;;;4.03;;
18425;SDS011;9340;48.756;9.226;2023-05-17T15:06:27;3.78;;;3.42;;
18425;SDS011;9340;48.756;9.226;2023-05-17T15:08:55;4.65;;;3.75;;
18425;SDS011;9340;48.756;9.226;2023-05-17T15:11:22;4.93;;;3.72;;